Time;durP1;ratioP1;P1;durP2;ratioP2;P2;SDS_P1;SDS_P2;PMS_P1;PMS_P2;Temp;Humidity;BMP_temperature;BMP_pressure;BME280_temperature;BME280_humidity;BME280_pressure;Samples;Min_cycle;Max_cycle;Signal;HPM_P1;HPM_P2
2022/11/21 00:01:25;;;;;;;7.45;5.20;;;16.10;64.70;;;;;;10450562;28;20102;-59
2022/11/21 00:06:25;;;;;;;8.18;5.10;;;16.20;64.50;;;;;;10450051;28;20040;-59
2022/11/21 00:11:26;;;;;;;6.68;4.97;;;16.10;64.60;;;;;;10450363;28;20013;-59
2022/11/21 00:16:27;;;;;;;8.10;5.45;;;16.20;64.60;;;;;;10451713;28;20028;-58
2022/11/21 00:21:27;;;;;;;7.97;5.43;;;16.20;64.40;;;;;;10451650;28;20057;-58
2022/11/21 00:26:28;;;;;;;6.53;5.10;;;16.20;64.50;;;;;;10448238;28;20060;-59
2022/11/21 00:31:29;;;;;;;6.20;5.30;;;16.20;64.30;;;;;;10450937;28;20181;-58
2022/11/21 00:36:29;;;;;;;7.57;6.28;;;16.20;64.20;;;;;;10449175;28;20088;-59
2022/11/21 00:41:30;;;;;;;8.60;6.85;;;16.20;64.20;;;;;;10449333;28;21055;-58
2022/11/21 00:46:31;;;;;;;6.32;5.15;;;16.20;64.20;;;;;;10450610;28;20057;-58
2022/11/21 00:51:31;;;;;;;8.38;5.50;;;16.20;64.10;;;;;;10448551;28;20178;-59
2022/11/21 00:56:32;;;;;;;7.90;6.50;;;16.20;64.10;;;;;;10448860;28;20133;-58
2022/11/21 01:01:32;;;;;;;5.95;4.78;;;16.20;64.10;;;;;;10448801;28;20065;-57
2022/11/21 01:06:35;;;;;;;6.93;5.60;;;16.20;63.80;;;;;;10448317;28;20039;-57
2022/11/21 01:11:36;;;;;;;6.50;5.22;;;16.20;63.80;;;;;;10448405;28;20107;-58
2022/11/21 01:16:37;;;;;;;7.45;5.00;;;16.20;63.90;;;;;;10448628;28;20037;-58
2022/11/21 01:21:37;;;;;;;6.15;4.50;;;16.20;63.80;;;;;;10447674;28;20108;-58
2022/11/21 01:26:38;;;;;;;7.00;5.18;;;16.20;63.80;;;;;;10447575;28;20107;-58
2022/11/21 01:31:39;;;;;;;6.13;4.88;;;16.20;63.70;;;;;;10448744;28;20021;-59
2022/11/21 01:36:40;;;;;;;7.68;5.40;;;16.20;63.70;;;;;;10446724;28;20139;-59
2022/11/21 01:41:44;;;;;;;7.18;4.93;;;16.20;63.70;;;;;;10447383;28;20028;-59
2022/11/21 01:46:45;;;;;;;5.97;4.60;;;16.20;63.60;;;;;;10447040;28;20036;-58
2022/11/21 01:52:29;;;;;;;5.68;4.65;;;16.30;63.40;;;;;;10446508;28;20029;-56
2022/11/21 01:57:42;;;;;;;4.57;3.65;;;16.30;63.40;;;;;;10445607;28;20039;-58
2022/11/21 02:02:48;;;;;;;5.63;4.45;;;16.20;63.60;;;;;;10430551;28;20480;-58
2022/11/21 02:07:54;;;;;;;6.15;4.32;;;16.30;63.50;;;;;;10447474;28;20435;-56
2022/11/21 02:12:57;;;;;;;5.57;4.60;;;16.20;63.60;;;;;;10445835;28;20028;-58
2022/11/21 02:17:57;;;;;;;6.10;3.95;;;16.20;63.40;;;;;;10429175;28;20037;-58
2022/11/21 02:23:31;;;;;;;6.03;5.00;;;16.20;63.40;;;;;;10445678;28;20044;-58
2022/11/21 02:28:32;;;;;;;6.60;4.93;;;16.20;63.40;;;;;;10445951;28;20029;-57
2022/11/21 02:33:34;;;;;;;5.43;4.30;;;16.20;63.40;;;;;;10445151;28;20037;-57
2022/11/21 02:38:37;;;;;;;6.18;4.20;;;16.20;63.20;;;;;;10445423;28;20372;-58
2022/11/21 02:43:55;;;;;;;6.25;4.13;;;16.20;63.20;;;;;;10446283;28;20664;-56
2022/11/21 02:48:57;;;;;;;6.25;4.88;;;16.20;63.30;;;;;;10444940;28;20025;-58
2022/11/21 02:53:57;;;;;;;5.78;4.47;;;16.20;63.20;;;;;;10433285;28;20025;-58
2022/11/21 02:58:58;;;;;;;5.97;4.70;;;16.20;63.30;;;;;;10444778;28;20048;-59
2022/11/21 03:03:59;;;;;;;6.53;4.60;;;16.20;63.20;;;;;;10446022;28;20056;-58
2022/11/21 03:08:59;;;;;;;6.97;4.75;;;16.20;63.10;;;;;;10445989;28;20461;-59
2022/11/21 03:14:00;;;;;;;6.22;4.25;;;16.20;63.20;;;;;;10444475;28;20104;-59
2022/11/21 03:19:01;;;;;;;6.28;4.60;;;16.20;63.10;;;;;;10445517;28;20685;-59
2022/11/21 03:24:02;;;;;;;6.07;4.45;;;16.20;63.00;;;;;;10445819;28;20106;-57
2022/11/21 03:29:02;;;;;;;5.50;4.40;;;16.20;63.10;;;;;;10444025;28;20048;-57
2022/11/21 03:34:03;;;;;;;6.60;4.50;;;16.20;62.90;;;;;;10445083;28;20041;-59
2022/11/21 03:39:04;;;;;;;5.50;3.83;;;16.20;63.10;;;;;;10445426;28;20103;-58
2022/11/21 03:44:08;;;;;;;5.95;3.95;;;16.20;63.20;;;;;;10434238;28;20025;-59
2022/11/21 03:49:10;;;;;;;6.68;4.18;;;16.20;63.00;;;;;;10451396;28;20492;-58
2022/11/21 03:54:10;;;;;;;6.63;4.57;;;16.20;63.00;;;;;;10451023;28;20041;-59
2022/11/21 03:59:11;;;;;;;6.70;4.43;;;16.20;63.00;;;;;;10451159;28;20029;-58
2022/11/21 04:04:12;;;;;;;6.85;4.22;;;16.20;63.00;;;;;;10450628;28;20606;-58
2022/11/21 04:09:12;;;;;;;6.28;4.32;;;16.20;63.10;;;;;;10451936;28;20068;-58
2022/11/21 04:14:13;;;;;;;4.72;3.83;;;16.20;62.90;;;;;;10451843;28;20017;-58
2022/11/21 04:19:14;;;;;;;5.80;4.07;;;16.20;63.10;;;;;;10449738;28;20466;-59
2022/11/21 04:24:14;;;;;;;5.68;4.18;;;16.10;63.20;;;;;;10451570;28;20108;-59
2022/11/21 04:29:15;;;;;;;5.53;3.70;;;16.20;63.00;;;;;;10466237;28;20033;-58
2022/11/21 04:34:16;;;;;;;5.20;3.53;;;16.20;63.00;;;;;;10450696;28;20048;-57
2022/11/21 04:39:16;;;;;;;6.53;4.22;;;16.20;63.20;;;;;;10449632;28;20102;-59
2022/11/21 04:44:17;;;;;;;6.13;4.32;;;16.20;62.90;;;;;;10449216;28;20105;-61
2022/11/21 04:49:18;;;;;;;5.35;3.85;;;16.20;63.00;;;;;;10450239;28;20064;-58
2022/11/21 04:54:18;;;;;;;4.78;3.70;;;16.30;62.90;;;;;;10449799;28;20021;-58
2022/11/21 04:59:19;;;;;;;4.85;3.72;;;16.20;62.90;;;;;;10450264;28;20051;-57
2022/11/21 05:04:19;;;;;;;6.32;4.82;;;16.10;63.00;;;;;;10448426;28;20112;-58
2022/11/21 05:09:20;;;;;;;6.43;3.88;;;16.20;63.00;;;;;;10449640;28;20120;-58
2022/11/21 05:14:21;;;;;;;5.85;3.88;;;16.20;62.90;;;;;;10449066;28;20384;-59
2022/11/21 05:19:21;;;;;;;6.90;3.95;;;16.20;62.90;;;;;;10431122;28;20488;-58
2022/11/21 05:24:22;;;;;;;6.18;3.85;;;16.20;62.80;;;;;;10447553;28;20476;-58
2022/11/21 05:29:23;;;;;;;5.85;4.05;;;16.20;62.90;;;;;;10445084;28;20087;-58
2022/11/21 05:34:23;;;;;;;4.82;4.13;;;16.20;62.80;;;;;;10445587;28;20209;-57
2022/11/21 05:39:25;;;;;;;4.63;3.80;;;16.20;62.80;;;;;;10446971;28;20103;-58
2022/11/21 05:44:26;;;;;;;6.32;3.83;;;16.10;62.90;;;;;;10445762;28;20116;-57
2022/11/21 05:49:26;;;;;;;5.75;4.55;;;16.20;62.90;;;;;;10428332;28;20028;-58
2022/11/21 05:54:27;;;;;;;5.25;3.80;;;16.20;62.70;;;;;;10445371;28;20009;-58
2022/11/21 05:59:28;;;;;;;6.50;4.03;;;16.20;63.10;;;;;;10444652;28;20166;-57
2022/11/21 06:04:28;;;;;;;5.97;3.72;;;16.50;62.90;;;;;;10445111;28;20117;-58
2022/11/21 06:09:29;;;;;;;9.32;3.50;;;16.40;63.10;;;;;;10444918;28;20060;-61
2022/11/21 06:14:30;;;;;;;12.18;4.60;;;16.30;64.00;;;;;;10445768;28;20060;-58
2022/11/21 06:19:30;;;;;;;8.75;4.32;;;16.40;65.20;;;;;;10479082;28;20045;-58
2022/11/21 06:24:31;;;;;;;12.35;4.93;;;16.50;65.70;;;;;;10445139;28;20419;-56
2022/11/21 06:29:31;;;;;;;7.35;4.70;;;16.50;66.20;;;;;;10461919;28;20119;-56
2022/11/21 06:34:32;;;;;;;11.02;5.18;;;16.50;66.10;;;;;;10445180;28;20171;-55
2022/11/21 06:39:33;;;;;;;12.70;4.65;;;16.50;65.80;;;;;;10445238;28;20056;-56
2022/11/21 06:44:33;;;;;;;9.60;4.38;;;16.50;66.30;;;;;;10436738;28;20059;-56
2022/11/21 06:49:34;;;;;;;13.15;4.38;;;16.40;66.60;;;;;;10453141;28;20120;-53
2022/11/21 06:54:35;;;;;;;9.18;4.75;;;16.40;67.20;;;;;;10445355;28;20417;-54
2022/11/21 06:59:35;;;;;;;18.38;5.20;;;16.30;67.20;;;;;;10441948;28;20049;-55
2022/11/21 07:04:36;;;;;;;14.60;5.47;;;16.10;66.90;;;;;;10442931;28;20120;-59
2022/11/21 07:09:37;;;;;;;13.93;5.38;;;15.90;67.30;;;;;;10484051;28;20049;-53
2022/11/21 07:14:37;;;;;;;19.63;6.05;;;15.80;67.40;;;;;;10444065;28;20428;-54
2022/11/21 07:19:38;;;;;;;15.57;6.20;;;15.90;67.00;;;;;;10445979;28;20126;-54
2022/11/21 07:24:39;;;;;;;13.98;5.15;;;15.90;66.50;;;;;;10431966;28;20024;-55
2022/11/21 07:29:40;;;;;;;13.60;4.97;;;15.90;66.30;;;;;;10447760;28;20043;-54
2022/11/21 07:34:40;;;;;;;18.00;5.47;;;15.80;66.20;;;;;;10450564;28;20128;-54
2022/11/21 07:39:41;;;;;;;12.57;5.50;;;15.80;66.50;;;;;;10449574;28;20063;-55
2022/11/21 07:44:42;;;;;;;11.45;5.15;;;15.90;66.30;;;;;;10434517;28;20475;-53
2022/11/21 07:49:42;;;;;;;16.77;5.53;;;16.10;66.20;;;;;;10452998;28;20065;-53
2022/11/21 07:54:43;;;;;;;25.98;6.88;;;16.10;66.40;;;;;;10451376;28;20044;-54
2022/11/21 07:59:44;;;;;;;9.88;5.13;;;16.00;66.60;;;;;;10452781;28;20480;-54
2022/11/21 08:04:45;;;;;;;12.68;5.93;;;16.00;66.70;;;;;;10452297;28;20056;-55
2022/11/21 08:09:46;;;;;;;12.18;5.03;;;16.00;67.00;;;;;;10452072;28;20021;-55
2022/11/21 08:14:47;;;;;;;13.20;5.38;;;16.00;66.90;;;;;;10450709;28;20028;-53
2022/11/21 08:19:48;;;;;;;12.75;4.65;;;16.10;66.80;;;;;;10451860;28;20623;-55
2022/11/21 08:24:48;;;;;;;11.18;4.90;;;16.10;66.90;;;;;;10450276;28;20201;-56
2022/11/21 08:29:49;;;;;;;11.27;5.72;;;15.90;67.30;;;;;;10450762;28;20105;-54
2022/11/21 08:34:50;;;;;;;8.10;5.20;;;15.90;67.00;;;;;;10450859;28;20422;-55
2022/11/21 08:39:51;;;;;;;15.45;5.53;;;15.90;66.60;;;;;;10448903;28;20052;-55
2022/11/21 08:44:52;;;;;;;8.90;4.15;;;16.00;66.30;;;;;;10447152;28;20601;-55
2022/11/21 08:49:52;;;;;;;8.80;4.88;;;16.00;66.00;;;;;;10449003;28;20036;-54
2022/11/21 08:54:53;;;;;;;8.98;4.75;;;16.10;65.70;;;;;;10450386;28;20047;-55
2022/11/21 08:59:53;;;;;;;6.85;4.32;;;16.10;65.70;;;;;;10450070;28;20023;-56
2022/11/21 09:04:54;;;;;;;11.48;4.45;;;16.10;65.80;;;;;;10449036;28;20063;-55
2022/11/21 09:09:55;;;;;;;10.13;5.90;;;16.10;65.60;;;;;;10448575;28;20673;-56
2022/11/21 09:20:14;;;;;;;8.95;5.00;;;16.10;65.70;;;;;;10436522;28;20112;-56
2022/11/21 09:25:15;;;;;;;8.23;4.22;;;16.10;65.50;;;;;;10449326;28;20013;-56
2022/11/21 09:30:16;;;;;;;6.93;4.50;;;16.10;65.50;;;;;;10430999;28;20036;-55
2022/11/21 09:35:17;;;;;;;8.65;4.10;;;16.10;65.60;;;;;;10448975;28;20706;-54
2022/11/21 09:40:18;;;;;;;8.55;3.92;;;16.10;65.40;;;;;;10447782;28;20126;-56
2022/11/21 09:45:28;;;;;;;7.32;4.10;;;16.10;65.50;;;;;;10447076;28;20052;-56
2022/11/21 09:50:43;;;;;;;7.05;4.55;;;16.10;65.50;;;;;;10446424;28;20104;-56
2022/11/21 09:55:51;;;;;;;7.60;4.25;;;16.10;65.50;;;;;;10429327;28;20043;-54
2022/11/21 10:00:53;;;;;;;7.43;3.63;;;15.90;65.60;;;;;;10444643;28;20655;-54
2022/11/21 10:06:17;;;;;;;8.98;4.75;;;16.10;65.30;;;;;;10448975;28;20040;-55
2022/11/21 10:17:44;;;;;;;5.90;3.25;;;16.60;63.80;;;;;;10446989;28;20033;-56
2022/11/21 10:23:22;;;;;;;5.27;3.17;;;16.80;63.40;;;;;;10445885;28;20116;-55
2022/11/21 10:28:39;;;;;;;7.40;3.70;;;16.90;62.90;;;;;;10447228;28;20032;-55
2022/11/21 10:33:40;;;;;;;5.28;3.22;;;17.00;62.90;;;;;;10449256;28;20060;-55
2022/11/21 10:38:42;;;;;;;6.22;3.78;;;17.00;63.10;;;;;;10448563;28;20367;-55
2022/11/21 10:49:16;;;;;;;5.18;3.00;;;16.90;63.30;;;;;;10452290;28;20406;-56
2022/11/21 10:54:31;;;;;;;6.28;3.13;;;17.00;63.40;;;;;;10459024;28;20009;-54
2022/11/21 10:59:32;;;;;;;7.70;5.05;;;17.00;63.60;;;;;;10460850;28;20017;-54
2022/11/21 11:04:33;;;;;;;9.60;3.78;;;17.00;63.70;;;;;;10463285;28;20491;-56
2022/11/21 11:09:34;;;;;;;8.35;4.35;;;16.90;63.90;;;;;;10459608;28;20033;-54
2022/11/21 11:14:36;;;;;;;6.57;4.65;;;16.80;64.30;;;;;;10456994;28;20021;-55
2022/11/21 11:19:36;;;;;;;8.93;4.47;;;16.70;64.40;;;;;;10459624;28;20005;-55
2022/11/21 11:24:50;;;;;;;10.45;3.92;;;16.80;64.20;;;;;;10459153;28;20675;-54
2022/11/21 11:29:52;;;;;;;7.65;3.65;;;16.80;64.40;;;;;;10457663;28;20129;-53
2022/11/21 11:35:05;;;;;;;8.10;4.05;;;16.90;64.40;;;;;;10457862;28;20080;-52
2022/11/21 11:40:31;;;;;;;11.70;4.57;;;17.20;63.90;;;;;;10459189;28;20025;-54
2022/11/21 11:51:55;;;;;;;18.48;4.25;;;17.80;63.10;;;;;;10457396;28;20521;-53
2022/11/21 11:56:58;;;;;;;5.75;3.38;;;17.90;62.40;;;;;;10453125;28;20422;-50
2022/11/21 12:02:42;;;;;;;7.50;3.63;;;18.10;62.10;;;;;;10451167;28;20021;-53
2022/11/21 12:07:53;;;;;;;9.27;3.20;;;18.10;62.00;;;;;;10428922;28;20037;-54
2022/11/21 12:13:10;;;;;;;15.32;4.93;;;18.00;62.20;;;;;;10451006;28;20477;-53
2022/11/21 12:18:20;;;;;;;9.32;3.70;;;18.00;62.70;;;;;;10450037;28;20431;-53
2022/11/21 12:23:27;;;;;;;13.40;3.83;;;18.10;63.00;;;;;;10451234;28;20029;-54
2022/11/21 12:28:55;;;;;;;5.60;3.78;;;17.90;63.30;;;;;;10451482;28;20025;-53
2022/11/21 12:34:16;;;;;;;9.32;3.70;;;17.80;63.80;;;;;;10451130;28;20041;-54
2022/11/21 12:39:52;;;;;;;17.55;3.85;;;17.70;64.40;;;;;;10451386;28;20036;-55
2022/11/21 12:45:12;;;;;;;8.27;4.25;;;17.70;64.50;;;;;;10450858;28;20021;-55
2022/11/21 12:55:42;;;;;;;12.73;3.88;;;17.60;64.40;;;;;;10435936;28;20033;-54
2022/11/21 13:01:14;;;;;;;9.50;3.80;;;17.70;64.20;;;;;;10449033;28;20025;-55
2022/11/21 13:06:33;;;;;;;7.97;3.47;;;17.60;64.20;;;;;;10449186;28;20388;-55
2022/11/21 13:12:08;;;;;;;7.35;3.38;;;17.60;64.10;;;;;;10448345;28;20051;-54
2022/11/21 13:17:30;;;;;;;8.00;3.80;;;17.50;64.30;;;;;;10439734;28;20087;-54
2022/11/21 13:22:36;;;;;;;7.20;3.53;;;17.50;64.30;;;;;;10449452;28;20410;-56
2022/11/21 13:27:41;;;;;;;10.02;3.72;;;17.50;64.00;;;;;;10449070;28;20133;-54
2022/11/21 13:32:43;;;;;;;9.82;3.80;;;17.60;64.20;;;;;;10447664;28;20032;-55
2022/11/21 13:38:06;;;;;;;10.20;3.47;;;17.70;64.10;;;;;;10448554;28;20049;-53
2022/11/21 13:43:15;;;;;;;10.90;3.97;;;17.70;64.40;;;;;;10447433;28;20380;-54
2022/11/21 13:48:40;;;;;;;11.80;4.10;;;17.70;64.30;;;;;;10448281;28;20029;-55
2022/11/21 13:54:03;;;;;;;13.52;3.65;;;17.60;64.90;;;;;;10448250;28;20035;-55
2022/11/21 13:59:45;;;;;;;15.38;5.05;;;17.50;65.50;;;;;;10446295;28;20013;-55
2022/11/21 14:05:14;;;;;;;8.07;3.90;;;17.60;65.20;;;;;;10445873;28;20544;-55
2022/11/21 14:10:24;;;;;;;11.13;4.13;;;17.50;65.60;;;;;;10445910;28;20473;-55
2022/11/21 14:15:57;;;;;;;16.75;3.83;;;17.40;66.10;;;;;;10447073;28;20021;-54
2022/11/21 14:21:00;;;;;;;18.02;3.95;;;17.40;66.70;;;;;;10447137;28;20025;-55
2022/11/21 14:26:13;;;;;;;13.80;3.75;;;17.50;66.10;;;;;;10443870;28;20035;-55
2022/11/21 14:31:14;;;;;;;20.50;5.63;;;17.60;66.00;;;;;;10445490;28;20044;-58
2022/11/21 14:36:31;;;;;;;16.13;4.72;;;17.50;66.20;;;;;;10446531;28;20523;-57
2022/11/21 14:41:33;;;;;;;15.40;5.05;;;17.50;66.50;;;;;;10444932;28;20040;-55
2022/11/21 14:46:39;;;;;;;21.77;5.53;;;17.30;66.60;;;;;;10446715;28;20052;-56
2022/11/21 14:52:17;;;;;;;35.67;6.03;;;17.40;66.50;;;;;;10445984;28;20032;-55
2022/11/21 14:57:23;;;;;;;14.40;4.85;;;17.50;67.00;;;;;;10407006;28;20033;-52
2022/11/21 15:02:28;;;;;;;25.15;6.00;;;17.40;67.30;;;;;;10446004;28;20111;-53
2022/11/21 15:07:41;;;;;;;23.05;5.28;;;17.30;67.70;;;;;;10427738;28;20033;-53
2022/11/21 15:13:07;;;;;;;24.95;5.45;;;17.20;68.50;;;;;;10430972;28;20397;-54
2022/11/21 15:18:24;;;;;;;21.83;5.15;;;17.20;69.60;;;;;;10443437;28;20021;-54
2022/11/21 15:23:35;;;;;;;18.00;4.72;;;17.20;69.20;;;;;;10444400;28;20025;-53
2022/11/21 15:28:36;;;;;;;24.85;4.97;;;17.10;68.20;;;;;;10444208;28;20040;-54
2022/11/21 15:33:57;;;;;;;24.35;6.63;;;17.00;68.00;;;;;;10442404;28;20041;-55
2022/11/21 15:39:20;;;;;;;19.92;4.68;;;17.10;67.60;;;;;;10449827;28;20067;-54
2022/11/21 15:44:21;;;;;;;14.90;4.10;;;17.10;67.40;;;;;;10449855;28;20025;-53
2022/11/21 15:49:23;;;;;;;19.35;4.60;;;17.20;67.10;;;;;;10452280;28;20025;-55
2022/11/21 15:54:24;;;;;;;17.73;5.35;;;17.20;67.20;;;;;;10452524;28;20013;-53
2022/11/21 15:59:24;;;;;;;13.70;4.20;;;17.20;67.30;;;;;;10450158;28;20060;-54
2022/11/21 16:04:26;;;;;;;16.63;3.95;;;17.20;67.40;;;;;;10451937;28;20045;-52
2022/11/21 16:09:28;;;;;;;21.80;3.72;;;17.20;67.10;;;;;;10451468;28;20098;-57
2022/11/21 16:14:28;;;;;;;30.45;5.25;;;17.20;66.80;;;;;;10451097;28;20108;-56
2022/11/21 16:19:29;;;;;;;11.43;3.90;;;17.20;66.70;;;;;;10447970;28;20013;-52
2022/11/21 16:24:30;;;;;;;20.70;4.75;;;17.20;67.30;;;;;;10449434;28;20021;-56
2022/11/21 16:29:30;;;;;;;21.95;5.07;;;17.20;66.90;;;;;;10444848;28;20029;-55
2022/11/21 16:34:31;;;;;;;22.33;4.95;;;17.30;66.80;;;;;;10451017;28;20436;-55
2022/11/21 16:39:33;;;;;;;22.10;4.95;;;17.30;66.60;;;;;;10449233;28;20115;-55
2022/11/21 16:44:34;;;;;;;22.75;6.03;;;17.20;66.20;;;;;;10450234;28;20096;-53
2022/11/21 16:49:41;;;;;;;31.48;6.13;;;17.00;66.10;;;;;;10449516;28;20048;-55
2022/11/21 16:54:42;;;;;;;20.90;5.10;;;17.20;65.60;;;;;;10451749;28;20045;-54
2022/11/21 16:59:42;;;;;;;21.42;5.63;;;17.30;65.00;;;;;;10449505;28;20036;-55
2022/11/21 17:04:43;;;;;;;26.60;5.57;;;17.40;64.10;;;;;;10442738;28;20053;-54
2022/11/21 17:09:44;;;;;;;15.40;6.63;;;17.60;63.50;;;;;;10444917;28;20088;-49
2022/11/21 17:14:46;;;;;;;25.10;5.68;;;17.70;63.20;;;;;;10448137;28;20432;-52
2022/11/21 17:19:47;;;;;;;19.58;5.43;;;17.70;64.40;;;;;;10449331;28;20475;-51
2022/11/21 17:24:48;;;;;;;19.33;5.68;;;17.80;65.00;;;;;;10449866;28;20143;-53
2022/11/21 17:29:49;;;;;;;21.17;4.47;;;17.90;65.10;;;;;;10448545;28;20032;-51
2022/11/21 17:34:50;;;;;;;17.13;5.80;;;17.80;67.20;;;;;;10447838;28;20052;-55
2022/11/21 17:39:50;;;;;;;20.17;4.47;;;17.80;66.60;;;;;;10448520;28;20231;-52
2022/11/21 17:44:51;;;;;;;18.95;5.35;;;17.70;67.20;;;;;;10448131;28;20069;-55
2022/11/21 17:49:52;;;;;;;12.60;5.07;;;17.70;67.00;;;;;;10446284;28;20711;-57
2022/11/21 17:54:53;;;;;;;17.33;5.63;;;17.50;66.40;;;;;;10447787;28;20052;-51
2022/11/21 17:59:54;;;;;;;14.52;5.35;;;17.50;66.00;;;;;;10446413;28;20558;-55
2022/11/21 18:04:55;;;;;;;14.13;4.90;;;17.60;65.50;;;;;;10447279;28;20029;-56
2022/11/21 18:09:55;;;;;;;21.17;4.70;;;17.70;65.80;;;;;;10442208;28;20455;-56
2022/11/21 18:14:56;;;;;;;13.13;4.63;;;17.60;66.10;;;;;;10441405;28;20040;-57
2022/11/21 18:19:57;;;;;;;17.05;4.70;;;17.40;66.60;;;;;;10446274;28;20067;-55
2022/11/21 18:24:57;;;;;;;10.55;3.83;;;17.30;67.10;;;;;;10445914;28;20108;-55
2022/11/21 18:29:58;;;;;;;10.88;5.15;;;17.10;67.20;;;;;;10441649;28;20501;-53
2022/11/21 18:34:59;;;;;;;7.53;3.80;;;17.00;67.50;;;;;;10445239;28;20068;-53
2022/11/21 18:39:59;;;;;;;13.88;4.25;;;17.00;67.80;;;;;;10445053;28;20104;-56
2022/11/21 18:45:00;;;;;;;7.22;3.15;;;16.90;67.90;;;;;;10445227;28;20049;-56
2022/11/21 18:50:01;;;;;;;10.68;4.45;;;16.80;68.10;;;;;;10442891;28;20096;-54
2022/11/21 18:55:01;;;;;;;14.73;4.68;;;16.70;69.00;;;;;;10441945;28;20041;-54
2022/11/21 19:00:04;;;;;;;9.38;3.53;;;16.70;69.30;;;;;;10445524;28;20563;-55
2022/11/21 19:05:05;;;;;;;10.43;3.50;;;16.70;69.30;;;;;;10447244;28;20109;-55
2022/11/21 19:10:06;;;;;;;8.60;3.05;;;16.60;68.90;;;;;;10446067;28;20055;-55
2022/11/21 19:15:07;;;;;;;8.43;3.00;;;16.60;69.00;;;;;;10453192;28;20025;-54
2022/11/21 19:20:08;;;;;;;8.65;3.72;;;16.40;68.80;;;;;;10453586;28;20028;-54
2022/11/21 19:25:09;;;;;;;9.50;3.00;;;16.50;69.00;;;;;;10452959;28;20036;-52
2022/11/21 19:30:11;;;;;;;5.90;3.53;;;16.40;69.70;;;;;;10450985;28;20052;-54
2022/11/21 19:35:11;;;;;;;6.28;3.00;;;16.30;68.90;;;;;;10451047;28;20049;-57
2022/11/21 19:40:13;;;;;;;9.93;3.38;;;16.30;69.60;;;;;;10452483;28;20100;-55
2022/11/21 19:45:14;;;;;;;9.40;3.38;;;16.20;69.70;;;;;;10449556;28;20655;-55
2022/11/21 19:50:14;;;;;;;6.80;3.03;;;16.20;70.30;;;;;;10449604;28;20028;-54
2022/11/21 19:55:15;;;;;;;4.90;2.50;;;16.20;70.60;;;;;;10450641;28;20037;-55
2022/11/21 20:00:17;;;;;;;4.80;2.42;;;16.20;70.70;;;;;;10462563;28;20112;-58
2022/11/21 20:05:17;;;;;;;8.38;2.72;;;16.10;70.70;;;;;;10450074;28;20017;-54
2022/11/21 20:10:18;;;;;;;6.30;2.83;;;16.10;70.50;;;;;;10452159;28;20087;-54
2022/11/21 20:15:19;;;;;;;8.80;2.47;;;16.10;70.40;;;;;;10451029;28;20147;-55
2022/11/21 20:20:20;;;;;;;8.30;2.85;;;16.00;70.40;;;;;;10450548;28;20440;-55
2022/11/21 20:25:20;;;;;;;5.70;2.22;;;16.00;70.60;;;;;;10450956;28;20018;-56
2022/11/21 20:30:23;;;;;;;5.63;3.45;;;16.00;70.90;;;;;;10449361;28;20057;-54
2022/11/21 20:35:24;;;;;;;8.30;3.35;;;16.00;70.80;;;;;;10449430;28;20036;-54
2022/11/21 20:40:25;;;;;;;7.18;2.50;;;15.90;70.30;;;;;;10445906;28;20036;-55
2022/11/21 20:45:25;;;;;;;6.10;2.90;;;15.90;70.10;;;;;;10448160;28;20052;-54
2022/11/21 20:50:26;;;;;;;8.23;3.25;;;15.90;70.50;;;;;;10446777;28;20044;-54
2022/11/21 20:55:28;;;;;;;10.85;3.97;;;15.80;69.30;;;;;;10446652;28;20024;-55
2022/11/21 21:00:29;;;;;;;8.23;3.05;;;15.90;68.10;;;;;;10446267;28;20013;-54
2022/11/21 21:05:30;;;;;;;4.05;2.40;;;15.90;66.90;;;;;;10447382;28;20064;-55
2022/11/21 21:10:30;;;;;;;7.20;2.83;;;15.90;68.30;;;;;;10447774;28;20487;-56
2022/11/21 21:15:32;;;;;;;6.25;2.72;;;15.80;68.20;;;;;;10449549;28;20037;-56
2022/11/21 21:20:33;;;;;;;4.80;2.38;;;15.80;67.50;;;;;;10449086;28;20044;-55
2022/11/21 21:25:34;;;;;;;6.70;2.70;;;15.80;66.30;;;;;;10449116;28;20032;-56
2022/11/21 21:30:38;;;;;;;4.75;2.67;;;15.80;65.60;;;;;;10447333;28;20036;-53
2022/11/21 21:35:38;;;;;;;5.38;2.92;;;15.90;65.80;;;;;;10447128;28;20129;-56
2022/11/21 21:40:39;;;;;;;4.43;2.15;;;15.70;66.80;;;;;;10448271;28;20028;-55
2022/11/21 21:45:40;;;;;;;3.05;2.20;;;15.70;66.70;;;;;;10448684;28;20100;-56
2022/11/21 21:50:40;;;;;;;4.13;2.08;;;15.80;65.60;;;;;;10448081;28;20064;-55
2022/11/21 21:55:41;;;;;;;4.82;2.80;;;15.80;65.00;;;;;;10447469;28;20131;-55
2022/11/21 22:00:42;;;;;;;5.60;2.63;;;15.80;64.50;;;;;;10445232;28;20483;-56
2022/11/21 22:05:42;;;;;;;3.47;2.00;;;15.70;65.60;;;;;;10446270;28;20051;-56
2022/11/21 22:10:43;;;;;;;7.25;2.47;;;15.60;66.60;;;;;;10445644;28;20076;-54
2022/11/21 22:15:44;;;;;;;3.70;2.53;;;15.60;66.10;;;;;;10447483;28;20486;-55
2022/11/21 22:20:44;;;;;;;3.95;1.98;;;15.60;65.10;;;;;;10445308;28;20075;-54
2022/11/21 22:25:45;;;;;;;2.83;1.80;;;15.70;64.40;;;;;;10462667;28;20056;-55
2022/11/21 22:30:58;;;;;;;5.75;2.40;;;15.60;64.00;;;;;;10445234;28;20499;-55
2022/11/21 22:36:04;;;;;;;4.13;2.00;;;15.60;65.00;;;;;;10445308;28;20053;-55
2022/11/21 22:41:13;;;;;;;3.35;1.58;;;15.50;65.50;;;;;;10444911;28;20104;-55
2022/11/21 22:46:14;;;;;;;;;;;15.60;64.50;;;;;;10445364;28;20029;-55
2022/11/21 22:51:25;;;;;;;4.97;2.47;;;15.60;64.10;;;;;;10445892;28;19938;-55
2022/11/21 22:56:26;;;;;;;4.63;2.38;;;15.60;63.50;;;;;;10427951;28;20437;-56
2022/11/21 23:01:26;;;;;;;3.22;1.58;;;15.60;64.30;;;;;;10444923;28;20125;-61
2022/11/21 23:06:27;;;;;;;2.92;1.80;;;15.50;65.10;;;;;;10445648;28;20029;-55
2022/11/21 23:11:30;;;;;;;2.95;2.00;;;15.50;64.40;;;;;;10444589;28;20072;-58
2022/11/21 23:16:31;;;;;;;4.60;2.22;;;15.50;63.40;;;;;;10445306;28;20032;-55
2022/11/21 23:21:32;;;;;;;4.07;1.77;;;15.50;63.00;;;;;;10445249;28;20439;-55
2022/11/21 23:26:32;;;;;;;3.63;1.40;;;15.60;63.50;;;;;;10444044;28;20029;-55
2022/11/21 23:31:33;;;;;;;5.68;1.70;;;15.60;64.30;;;;;;10443805;28;20093;-55
2022/11/21 23:36:34;;;;;;;3.90;1.48;;;15.50;63.80;;;;;;10443945;28;20076;-55
2022/11/21 23:41:34;;;;;;;2.58;1.40;;;15.70;63.30;;;;;;10444215;28;20036;-56
2022/11/21 23:46:35;;;;;;;2.45;1.42;;;15.70;62.50;;;;;;10443530;28;20029;-54
2022/11/21 23:51:36;;;;;;;1.77;1.13;;;15.60;62.40;;;;;;10445234;28;20036;-54
2022/11/21 23:56:36;;;;;;;2.38;1.10;;;15.70;63.00;;;;;;10443964;28;20024;-55
